Time;durP1;ratioP1;P1;durP2;ratioP2;P2;SDS_P1;SDS_P2;PMS_P1;PMS_P2;Temp;Humidity;BMP_temperature;BMP_pressure;BME280_temperature;BME280_humidity;BME280_pressure;Samples;Min_cycle;Max_cycle;Signal;HPM_P1;HPM_P2
2022/04/08 00:02:13;;;;;;;3.28;1.90;;;;;;;16.01;46.26;96364.47;5137284;27;20026;-31
2022/04/08 00:04:39;;;;;;;4.50;2.40;;;;;;;16.00;46.18;96343.81;5137209;27;20117;-30
2022/04/08 00:07:04;;;;;;;2.83;1.73;;;;;;;15.98;46.26;96351.72;5137355;27;20110;-30
2022/04/08 00:09:29;;;;;;;4.00;2.03;;;;;;;15.98;46.39;96351.72;5137185;27;20059;-31
2022/04/08 00:11:55;;;;;;;4.63;1.95;;;;;;;15.92;46.46;96341.88;5137470;27;20019;-31
2022/04/08 00:14:21;;;;;;;3.65;2.17;;;;;;;15.96;46.40;96331.50;5137213;27;20050;-30
2022/04/08 00:16:47;;;;;;;2.42;1.65;;;;;;;15.98;46.41;96338.03;5118922;27;20031;-31
2022/04/08 00:19:12;;;;;;;4.97;1.73;;;;;;;15.86;46.79;96328.06;5137090;27;20027;-30
2022/04/08 00:21:38;;;;;;;4.93;1.98;;;;;;;15.93;46.93;96333.22;5136462;27;20023;-31
2022/04/08 00:24:04;;;;;;;3.92;2.17;;;;;;;15.93;46.60;96327.75;5137263;27;20085;-31
2022/04/08 00:26:30;;;;;;;4.22;1.98;;;;;;;15.97;46.66;96317.38;5137056;27;20055;-30
2022/04/08 00:28:55;;;;;;;2.53;1.85;;;;;;;15.91;46.62;96327.44;5137058;27;20102;-31
2022/04/08 00:31:22;;;;;;;3.75;1.60;;;;;;;15.94;46.84;96315.59;5136911;27;20054;-30
2022/04/08 00:33:48;;;;;;;3.60;1.83;;;;;;;15.92;46.88;96312.56;5136845;27;20027;-31
2022/04/08 00:36:13;;;;;;;3.70;1.70;;;;;;;15.90;47.00;96315.00;5136512;27;20050;-31
2022/04/08 00:38:38;;;;;;;3.67;1.50;;;;;;;15.91;47.01;96313.78;5136766;27;20027;-30
2022/04/08 00:41:04;;;;;;;4.60;1.85;;;;;;;15.85;47.04;96310.16;5136554;27;20071;-31
2022/04/08 00:43:35;;;;;;;2.97;1.60;;;;;;;15.87;47.07;96298.75;5118185;27;20091;-31
2022/04/08 00:46:05;;;;;;;6.70;1.85;;;;;;;15.83;47.17;96296.16;5136546;27;20030;-30
2022/04/08 00:48:31;;;;;;;6.00;2.28;;;;;;;15.85;47.26;96304.66;5136668;27;20035;-31
2022/04/08 00:50:58;;;;;;;3.67;1.80;;;;;;;15.88;47.09;96284.59;5136369;27;20022;-32
2022/04/08 00:53:24;;;;;;;6.78;2.28;;;;;;;15.88;47.44;96306.50;5136602;27;20027;-30
2022/04/08 00:55:50;;;;;;;4.78;2.20;;;;;;;15.83;47.45;96293.44;5136468;27;20428;-30
2022/04/08 00:58:16;;;;;;;3.13;2.08;;;;;;;15.78;47.54;96297.59;5136237;27;20027;-31
2022/04/08 01:00:42;;;;;;;6.80;2.20;;;;;;;15.82;47.76;96295.41;5136303;27;20443;-31
2022/04/08 01:03:08;;;;;;;5.13;2.50;;;;;;;15.86;47.57;96291.75;5135997;27;20122;-31
2022/04/08 01:05:34;;;;;;;3.95;2.38;;;;;;;15.83;47.77;96296.16;5136236;27;20451;-31
2022/04/08 01:08:01;;;;;;;5.68;2.40;;;;;;;15.81;47.86;96295.91;5136157;27;20057;-30
2022/04/08 01:10:27;;;;;;;4.88;2.40;;;;;;;15.77;48.24;96298.03;5136227;27;20023;-30
2022/04/08 01:12:52;;;;;;;4.40;2.13;;;;;;;15.80;48.06;96306.09;5136014;27;20023;-31
2022/04/08 01:15:19;;;;;;;5.07;2.10;;;;;;;15.78;48.40;96305.03;5136027;27;20038;-31
2022/04/08 01:17:45;;;;;;;3.50;2.17;;;;;;;15.80;48.42;96308.06;5135728;27;20410;-31
2022/04/08 01:20:12;;;;;;;5.32;2.53;;;;;;;15.84;48.31;96297.69;5135899;27;20031;-30
2022/04/08 01:22:37;;;;;;;4.82;2.53;;;;;;;15.79;48.62;96299.09;5135839;27;20103;-30
2022/04/08 01:25:04;;;;;;;5.30;2.60;;;;;;;15.89;48.59;96290.84;5135850;27;20027;-30
2022/04/08 01:27:31;;;;;;;5.90;2.58;;;;;;;15.76;48.74;96286.34;5134449;27;20031;-30
2022/04/08 01:29:56;;;;;;;5.50;2.50;;;;;;;15.74;49.07;96290.75;5133670;27;20023;-31
2022/04/08 01:32:22;;;;;;;6.55;2.70;;;;;;;15.75;48.80;96279.38;5134728;27;20026;-31
2022/04/08 01:34:49;;;;;;;5.82;2.78;;;;;;;15.74;49.21;96288.03;5135444;27;20446;-32
2022/04/08 01:37:18;;;;;;;4.55;2.53;;;;;;;15.77;49.29;96292.56;5135562;27;20468;-30
2022/04/08 01:39:44;;;;;;;6.15;2.30;;;;;;;15.74;49.33;96283.31;5135257;27;20034;-31
2022/04/08 01:42:10;;;;;;;5.70;2.60;;;;;;;15.75;49.49;96282.09;5135296;27;20019;-31
2022/04/08 01:44:36;;;;;;;7.10;2.88;;;;;;;15.72;49.72;96279.53;5135468;27;20035;-31
2022/04/08 01:47:02;;;;;;;7.40;2.97;;;;;;;15.71;49.59;96280.75;5135284;27;20046;-31
2022/04/08 01:49:28;;;;;;;6.35;2.65;;;;;;;15.67;49.98;96271.97;5135194;27;20019;-30
2022/04/08 01:51:53;;;;;;;6.78;2.95;;;;;;;15.72;49.62;96274.06;5135226;27;20015;-31
2022/04/08 01:54:19;;;;;;;4.93;2.72;;;;;;;15.66;50.21;96281.38;5135092;27;20019;-31
2022/04/08 01:56:45;;;;;;;8.55;3.00;;;;;;;15.68;49.80;96276.22;5135257;27;20106;-30
2022/04/08 01:59:10;;;;;;;6.93;2.88;;;;;;;15.71;49.92;96275.28;5135118;27;20015;-31
2022/04/08 02:01:36;;;;;;;7.40;3.05;;;;;;;15.63;50.25;96276.84;5134824;27;20023;-31
2022/04/08 02:04:03;;;;;;;7.97;2.88;;;;;;;15.66;49.88;96262.25;5134850;27;20043;-32
2022/04/08 02:06:28;;;;;;;5.60;2.83;;;;;;;15.57;50.82;96263.06;5134933;27;20023;-31
2022/04/08 02:08:54;;;;;;;7.40;3.92;;;;;;;15.70;50.36;96276.53;5134955;27;20633;-31
2022/04/08 02:11:20;;;;;;;7.40;3.35;;;;;;;15.70;50.52;96271.06;5134895;27;20064;-31
2022/04/08 02:13:46;;;;;;;7.00;3.20;;;;;;;15.65;50.82;96277.13;5134812;27;20037;-32
2022/04/08 02:16:12;;;;;;;6.45;3.63;;;;;;;15.65;50.70;96285.34;5134825;27;20015;-30
2022/04/08 02:18:38;;;;;;;9.80;3.00;;;;;;;15.62;50.89;96262.41;5134834;27;20019;-31
2022/04/08 02:21:04;;;;;;;8.52;3.92;;;;;;;15.63;50.72;96271.38;5134718;27;20027;-30
2022/04/08 02:23:30;;;;;;;7.72;3.00;;;;;;;15.57;50.80;96262.31;5134964;27;20027;-30
2022/04/08 02:25:56;;;;;;;7.65;3.00;;;;;;;15.66;50.77;96262.25;5134550;27;20022;-30
2022/04/08 02:28:21;;;;;;;6.13;2.90;;;;;;;15.65;50.80;96263.47;5134650;27;20428;-31
2022/04/08 02:30:48;;;;;;;8.88;3.30;;;;;;;15.67;50.77;96272.72;5134754;27;20403;-31
2022/04/08 02:33:13;;;;;;;6.43;2.55;;;;;;;15.66;50.81;96265.00;5134739;27;20027;-31
2022/04/08 02:35:39;;;;;;;7.43;3.17;;;;;;;15.61;50.79;96260.13;5134579;27;20031;-30
2022/04/08 02:38:05;;;;;;;8.43;3.13;;;;;;;15.64;50.72;96267.41;5134505;27;20114;-30
2022/04/08 02:40:30;;;;;;;7.72;2.90;;;;;;;15.60;50.88;96272.28;5134429;27;20027;-30
2022/04/08 02:42:56;;;;;;;10.35;3.30;;;;;;;15.60;51.19;96264.09;5116004;28;20035;-31
2022/04/08 02:45:21;;;;;;;11.98;4.03;;;;;;;15.61;51.47;96271.06;5134116;27;20102;-31
2022/04/08 02:47:47;;;;;;;7.65;3.22;;;;;;;15.61;51.27;96276.53;5134343;27;20023;-30
2022/04/08 02:50:13;;;;;;;6.72;3.60;;;;;;;15.62;51.00;96275.31;5134388;28;20387;-31
2022/04/08 02:52:39;;;;;;;7.45;3.10;;;;;;;15.54;51.19;96271.41;5134427;28;20098;-31
2022/04/08 02:55:05;;;;;;;7.57;3.65;;;;;;;15.60;51.16;96272.28;5134332;28;20467;-30
2022/04/08 02:57:31;;;;;;;4.70;2.88;;;;;;;15.60;51.12;96261.34;5115787;28;20031;-30
2022/04/08 02:59:59;;;;;;;5.70;2.65;;;;;;;15.56;51.41;96260.78;5134310;28;20463;-31
2022/04/08 03:02:25;;;;;;;6.47;2.88;;;;;;;15.50;51.53;96268.06;5134161;28;20108;-30
2022/04/08 03:04:51;;;;;;;5.05;2.53;;;;;;;15.58;51.46;96266.56;5134107;28;20486;-31
2022/04/08 03:07:17;;;;;;;6.78;2.97;;;;;;;15.58;51.49;96263.81;5134153;28;20459;-31
2022/04/08 03:09:43;;;;;;;7.60;3.00;;;;;;;15.51;52.10;96264.13;5134087;28;20030;-30
2022/04/08 03:12:09;;;;;;;8.95;3.00;;;;;;;15.51;51.74;96258.66;5134207;28;20019;-30
2022/04/08 03:14:34;;;;;;;7.78;2.60;;;;;;;15.53;51.57;96256.97;5134296;28;20182;-31
2022/04/08 03:17:01;;;;;;;6.80;2.92;;;;;;;15.53;51.60;96256.22;5134196;28;20020;-31
2022/04/08 03:19:27;;;;;;;6.80;2.78;;;;;;;15.54;51.69;96253.03;5134018;28;20023;-30
2022/04/08 03:21:53;;;;;;;6.95;2.50;;;;;;;15.54;51.83;96253.03;5133903;28;20023;-31
2022/04/08 03:24:18;;;;;;;7.55;2.75;;;;;;;15.46;52.10;96255.31;5134074;28;20573;-31
2022/04/08 03:26:46;;;;;;;9.48;2.95;;;;;;;15.58;51.87;96247.41;5134013;28;20424;-30
2022/04/08 03:29:12;;;;;;;10.20;3.25;;;;;;;15.45;51.81;96251.06;5134026;28;20099;-30
2022/04/08 03:31:37;;;;;;;7.38;3.08;;;;;;;15.56;51.66;96255.31;5134233;28;20515;-30
2022/04/08 03:34:03;;;;;;;5.90;2.45;;;;;;;15.51;51.56;96250.44;5133939;28;20026;-31
2022/04/08 03:36:29;;;;;;;6.97;2.30;;;;;;;15.44;52.31;96262.47;5134152;28;20027;-30
2022/04/08 03:38:54;;;;;;;7.32;2.70;;;;;;;15.48;51.78;96248.63;5134246;28;20031;-31
2022/04/08 03:41:20;;;;;;;5.43;2.30;;;;;;;15.50;52.14;96254.41;5133795;28;20019;-31
2022/04/08 03:43:45;;;;;;;9.95;2.97;;;;;;;15.52;51.91;96260.91;5134002;28;20421;-31
2022/04/08 03:46:11;;;;;;;6.68;2.28;;;;;;;15.50;52.12;96262.59;5133739;28;20503;-30
2022/04/08 03:48:37;;;;;;;7.05;2.35;;;;;;;15.46;51.94;96260.78;5134124;28;20040;-32
2022/04/08 03:51:03;;;;;;;5.93;2.40;;;;;;;15.46;52.15;96254.56;5115374;28;20392;-31
2022/04/08 03:53:28;;;;;;;6.07;2.55;;;;;;;15.49;52.01;96250.16;5133683;28;20027;-31
2022/04/08 03:55:54;;;;;;;5.70;2.22;;;;;;;15.44;52.19;96248.81;5134380;27;20057;-30
2022/04/08 03:58:19;;;;;;;7.60;3.05;;;;;;;15.49;51.90;96244.69;5137435;27;20456;-31
2022/04/08 04:00:44;;;;;;;6.03;2.42;;;;;;;15.43;52.21;96242.59;5137632;27;20031;-30
2022/04/08 04:03:10;;;;;;;6.80;2.38;;;;;;;15.48;52.17;96245.91;5137384;27;20411;-31
2022/04/08 04:05:35;;;;;;;9.90;2.30;;;;;;;15.44;52.34;96255.03;5137750;27;20019;-30
2022/04/08 04:08:02;;;;;;;6.65;2.72;;;;;;;15.50;52.23;96251.66;5137352;27;20025;-31
2022/04/08 04:10:27;;;;;;;10.13;2.65;;;;;;;15.44;51.99;96246.84;5137364;27;20442;-30
2022/04/08 04:12:53;;;;;;;8.30;2.70;;;;;;;15.49;52.06;96241.94;5137262;27;20043;-31
2022/04/08 04:15:20;;;;;;;6.45;2.60;;;;;;;15.50;52.11;96246.19;5137229;27;20058;-31
2022/04/08 04:17:45;;;;;;;7.32;2.15;;;;;;;15.41;52.16;96250.50;5137320;27;20497;-30
2022/04/08 04:20:12;;;;;;;8.43;2.35;;;;;;;15.44;52.30;96243.34;5137039;27;20028;-31
2022/04/08 04:22:37;;;;;;;10.50;3.13;;;;;;;15.44;52.16;96246.09;5137068;27;20061;-31
2022/04/08 04:25:04;;;;;;;10.90;3.40;;;;;;;15.45;52.17;96240.13;5137370;27;20031;-31
2022/04/08 04:27:30;;;;;;;8.38;2.58;;;;;;;15.47;52.04;96242.41;5136888;27;20019;-31
2022/04/08 04:29:55;;;;;;;7.65;2.55;;;;;;;15.44;52.33;96237.88;5136998;27;20067;-31
2022/04/08 04:32:21;;;;;;;5.00;2.15;;;;;;;15.44;52.16;96240.63;5136908;27;20022;-31
2022/04/08 04:34:47;;;;;;;6.15;2.50;;;;;;;15.40;52.28;96246.25;5136909;27;20019;-31
2022/04/08 04:37:12;;;;;;;8.45;2.60;;;;;;;15.43;52.23;96248.06;5136837;27;20487;-31
2022/04/08 04:39:38;;;;;;;8.25;2.65;;;;;;;15.46;52.15;96236.19;5136916;27;20031;-30
2022/04/08 04:42:04;;;;;;;7.15;2.70;;;;;;;15.45;52.32;96245.59;5136498;27;20034;-30
2022/04/08 04:44:29;;;;;;;6.38;2.30;;;;;;;15.43;52.36;96237.13;5136533;27;20027;-31
2022/04/08 04:46:55;;;;;;;4.50;1.92;;;;;;;15.43;52.46;96239.09;5136611;27;20106;-31
2022/04/08 04:49:22;;;;;;;6.68;2.50;;;;;;;15.44;52.50;96235.91;5136467;27;20070;-31
2022/04/08 04:51:49;;;;;;;6.55;2.45;;;;;;;15.40;52.50;96240.78;5118109;27;20091;-31
2022/04/08 04:54:14;;;;;;;5.30;1.95;;;;;;;15.39;52.62;96247.47;5136699;27;20456;-30
2022/04/08 04:56:40;;;;;;;11.77;2.78;;;;;;;15.43;52.64;96244.56;5117949;27;20087;-31
2022/04/08 04:59:05;;;;;;;6.03;2.63;;;;;;;15.39;52.53;96235.78;5136566;27;20102;-31
2022/04/08 05:01:31;;;;;;;6.53;2.10;;;;;;;15.42;52.38;96243.06;5136159;27;20027;-32
2022/04/08 05:03:57;;;;;;;6.30;2.70;;;;;;;15.41;52.58;96245.03;5136255;27;20130;-32
2022/04/08 05:06:22;;;;;;;5.32;2.45;;;;;;;15.34;52.51;96250.81;5136253;27;20106;-30
2022/04/08 05:08:48;;;;;;;8.40;2.75;;;;;;;15.39;52.38;96246.69;5134958;27;20099;-31
2022/04/08 05:11:15;;;;;;;6.97;2.70;;;;;;;15.40;52.36;96256.41;5136214;27;20019;-30
2022/04/08 05:13:41;;;;;;;8.60;2.70;;;;;;;15.36;53.02;96259.31;5136206;27;20023;-30
2022/04/08 05:16:06;;;;;;;7.68;2.38;;;;;;;15.36;52.85;96262.03;5134471;27;20027;-31
2022/04/08 05:18:33;;;;;;;6.15;3.03;;;;;;;15.33;52.86;96273.88;5122043;27;20023;-31
2022/04/08 05:20:58;;;;;;;9.63;3.80;;;;;;;15.41;52.68;96282.53;5133864;27;20027;-31
2022/04/08 05:23:28;;;;;;;7.93;3.78;;;;;;;15.37;52.99;96271.75;5102612;28;20483;-31
2022/04/08 05:25:55;;;;;;;7.25;3.05;;;;;;;15.32;52.84;96277.88;5113441;28;20498;-31
2022/04/08 05:28:20;;;;;;;7.43;3.50;;;;;;;15.36;52.88;96283.91;5112945;28;20461;-31
2022/04/08 05:30:46;;;;;;;7.57;3.10;;;;;;;15.28;53.11;96288.19;5113165;28;20020;-31
2022/04/08 05:33:12;;;;;;;6.68;3.05;;;;;;;15.28;52.92;96277.25;5113137;28;20030;-31
2022/04/08 05:35:37;;;;;;;10.20;3.40;;;;;;;15.35;52.94;96273.44;5126137;27;20142;-31
2022/04/08 05:38:03;;;;;;;7.35;2.83;;;;;;;15.27;52.95;96267.53;5132561;27;20042;-31
2022/04/08 05:40:28;;;;;;;9.98;3.53;;;;;;;15.33;52.97;96284.81;5132823;27;20687;-31
2022/04/08 05:42:54;;;;;;;9.48;4.13;;;;;;;15.31;53.14;96286.53;5133072;27;20026;-32
2022/04/08 05:45:21;;;;;;;9.27;3.92;;;;;;;15.37;53.05;96282.69;5133369;27;20026;-30
2022/04/08 05:47:47;;;;;;;6.60;3.15;;;;;;;15.35;53.28;96278.91;5133430;27;20387;-31
2022/04/08 05:50:14;;;;;;;10.20;3.65;;;;;;;15.35;53.31;96278.91;5133538;27;20019;-30
2022/04/08 05:52:41;;;;;;;5.32;2.85;;;;;;;15.30;53.21;96274.81;5133061;27;20027;-32
2022/04/08 05:55:07;;;;;;;6.78;3.00;;;;;;;15.32;53.17;96286.06;5133115;27;20031;-31
2022/04/08 05:57:40;;;;;;;8.80;3.53;;;;;;;15.33;53.22;96279.34;5133022;27;20035;-31
2022/04/08 06:00:08;;;;;;;7.03;3.10;;;;;;;15.29;53.37;96283.47;5133240;27;20035;-31
2022/04/08 06:02:33;;;;;;;8.65;3.33;;;;;;;15.32;53.26;96286.06;5131798;27;20023;-30
2022/04/08 06:04:59;;;;;;;6.07;3.20;;;;;;;15.33;53.25;96289.56;5110964;28;20092;-31
2022/04/08 06:07:25;;;;;;;6.72;2.83;;;;;;;15.33;53.32;96293.00;5112335;28;20031;-30
2022/04/08 06:09:50;;;;;;;7.70;3.50;;;;;;;15.34;53.03;96293.78;5112406;28;20116;-30
2022/04/08 06:12:16;;;;;;;6.75;2.78;;;;;;;15.30;53.31;96299.41;5098288;28;20024;-31
2022/04/08 06:14:41;;;;;;;6.55;2.78;;;;;;;15.27;53.07;96297.59;5092101;28;20019;-31
2022/04/08 06:17:07;;;;;;;6.63;3.35;;;;;;;15.29;53.42;96299.88;5090920;28;20468;-31
2022/04/08 06:19:32;;;;;;;10.60;3.63;;;;;;;15.26;53.26;96312.47;5091414;28;20102;-31
2022/04/08 06:21:58;;;;;;;9.27;2.80;;;;;;;15.26;53.62;96312.47;5091328;28;20037;-30
2022/04/08 06:24:24;;;;;;;7.63;3.03;;;;;;;15.28;53.61;96301.84;5091901;28;20039;-31
2022/04/08 06:26:50;;;;;;;7.00;2.60;;;;;;;15.29;53.48;96297.16;5091869;28;20023;-31
2022/04/08 06:29:15;;;;;;;6.00;2.38;;;;;;;15.28;53.61;96303.81;5091350;28;20043;-31
2022/04/08 06:31:40;;;;;;;8.82;2.65;;;;;;;15.33;53.35;96317.59;5091431;28;20020;-31
2022/04/08 06:34:06;;;;;;;7.47;2.83;;;;;;;15.34;53.34;96321.09;5091521;28;20020;-30
2022/04/08 06:36:31;;;;;;;8.63;3.30;;;;;;;15.28;53.39;96315.50;5091584;28;20107;-31
2022/04/08 06:38:57;;;;;;;8.88;2.53;;;;;;;15.20;53.78;96319.03;5091731;28;20031;-31
2022/04/08 06:41:22;;;;;;;6.25;2.47;;;;;;;15.28;53.70;96312.03;5096610;28;20102;-31
2022/04/08 06:43:48;;;;;;;4.90;2.97;;;;;;;15.25;53.71;96305.50;5110655;28;20035;-31
2022/04/08 06:46:14;;;;;;;9.98;3.03;;;;;;;15.20;54.34;96306.13;5111995;28;20030;-31
2022/04/08 06:48:39;;;;;;;6.85;2.70;;;;;;;15.24;54.18;96312.16;5111933;28;20035;-31
2022/04/08 06:51:05;;;;;;;6.13;2.47;;;;;;;15.24;53.68;96309.44;5111800;28;20038;-31
2022/04/08 06:53:32;;;;;;;7.80;2.50;;;;;;;15.26;53.68;96308.97;5111464;28;20548;-30
2022/04/08 06:55:58;;;;;;;7.53;2.40;;;;;;;15.30;53.69;96310.34;5111773;28;20056;-30
2022/04/08 06:58:27;;;;;;;4.82;2.65;;;;;;;15.28;53.85;96315.50;5111811;28;20043;-31
2022/04/08 07:00:53;;;;;;;7.53;2.60;;;;;;;15.27;53.43;96315.97;5111596;28;20038;-31
2022/04/08 07:03:19;;;;;;;7.03;2.60;;;;;;;15.26;53.93;96308.97;5118922;28;20406;-31
2022/04/08 07:05:44;;;;;;;8.43;2.45;;;;;;;15.24;53.89;96312.16;5130388;28;20042;-31
2022/04/08 07:08:10;;;;;;;5.50;2.22;;;;;;;15.23;53.64;96309.91;5132141;28;20030;-31
2022/04/08 07:10:38;;;;;;;5.05;2.33;;;;;;;15.27;54.05;96307.78;5132073;28;20094;-31
2022/04/08 07:13:04;;;;;;;9.63;3.08;;;;;;;15.28;53.74;96310.03;5111298;28;20157;-31
2022/04/08 07:15:30;;;;;;;5.07;2.22;;;;;;;15.27;53.78;96303.06;5111293;28;20111;-31
2022/04/08 07:17:56;;;;;;;4.95;2.20;;;;;;;15.29;54.22;96303.38;5111306;28;20031;-31
2022/04/08 07:20:22;;;;;;;7.97;2.60;;;;;;;15.16;54.42;96308.25;5111444;28;20024;-30
2022/04/08 07:22:47;;;;;;;7.22;2.55;;;;;;;15.15;54.41;96301.28;5111081;28;20046;-31
2022/04/08 07:25:13;;;;;;;5.57;2.05;;;;;;;15.15;53.98;96305.97;5111513;28;20042;-31
2022/04/08 07:27:50;;;;;;;5.68;2.10;;;;;;;15.25;53.89;96302.75;5111586;28;20035;-31
2022/04/08 07:30:18;;;;;;;9.10;2.33;;;;;;;15.24;54.14;96311.41;5111558;28;20024;-30
2022/04/08 07:32:46;;;;;;;5.57;2.08;;;;;;;15.32;54.00;96312.63;5114949;28;20031;-31
2022/04/08 07:35:12;;;;;;;7.63;2.28;;;;;;;15.18;54.24;96307.81;5115382;28;20153;-31
2022/04/08 07:37:38;;;;;;;6.72;2.03;;;;;;;15.15;54.69;96305.97;5115041;28;20032;-32
2022/04/08 07:40:08;;;;;;;5.55;2.50;;;;;;;15.27;54.06;96311.25;5123699;27;20068;-31
2022/04/08 07:42:34;;;;;;;7.00;2.72;;;;;;;15.32;54.10;96318.09;5137668;27;20023;-30
2022/04/08 07:45:00;;;;;;;10.25;2.13;;;;;;;15.21;54.39;96325.97;5137732;27;20050;-31
2022/04/08 07:47:29;;;;;;;6.63;2.22;;;;;;;15.29;53.87;96325.22;5137748;27;20157;-31
2022/04/08 07:50:06;;;;;;;9.73;3.00;;;;;;;15.18;54.95;96327.69;5137840;27;20364;-30
2022/04/08 07:52:31;;;;;;;7.32;2.38;;;;;;;15.06;55.49;96329.38;5136629;27;20019;-32
2022/04/08 07:54:57;;;;;;;6.05;2.00;;;;;;;15.12;55.41;96328.75;5118486;27;20139;-32
2022/04/08 07:57:23;;;;;;;8.45;2.67;;;;;;;15.20;55.40;96333.44;5137528;27;20033;-31
2022/04/08 07:59:49;;;;;;;11.70;2.88;;;;;;;14.61;58.83;96334.84;5137096;27;20122;-30
2022/04/08 08:02:15;;;;;;;6.70;2.47;;;;;;;14.89;57.14;96330.91;5136709;27;20407;-31
2022/04/08 08:04:41;;;;;;;9.43;2.85;;;;;;;14.97;56.57;96331.34;5137147;27;20073;-31
2022/04/08 08:07:07;;;;;;;6.68;2.60;;;;;;;15.19;55.79;96329.19;5137376;27;20015;-31
2022/04/08 08:09:36;;;;;;;9.40;2.97;;;;;;;15.13;56.45;96344.69;5137737;27;20091;-31
2022/04/08 08:12:03;;;;;;;9.25;2.80;;;;;;;15.07;56.81;96346.53;5137134;27;20101;-30
2022/04/08 08:14:29;;;;;;;9.43;3.05;;;;;;;15.06;56.42;96342.28;5137232;27;20027;-30
2022/04/08 08:16:54;;;;;;;9.25;2.88;;;;;;;15.23;55.37;96345.41;5137178;27;20463;-31
2022/04/08 08:19:20;;;;;;;6.93;2.38;;;;;;;15.32;54.96;96354.38;5137279;27;20027;-31
2022/04/08 08:21:45;;;;;;;6.25;2.55;;;;;;;15.23;56.01;96359.06;5137271;27;20493;-31
2022/04/08 08:24:11;;;;;;;9.43;2.33;;;;;;;15.22;56.07;96369.25;5136956;27;20031;-30
2022/04/08 08:26:36;;;;;;;12.57;3.50;;;;;;;15.29;55.79;96363.47;5137005;27;20023;-30
2022/04/08 08:29:02;;;;;;;5.95;2.10;;;;;;;15.31;55.15;96371.97;5136869;27;20019;-30
2022/04/08 08:31:28;;;;;;;6.00;2.25;;;;;;;15.25;55.13;96368.34;5136819;27;20080;-31
2022/04/08 08:33:53;;;;;;;5.97;2.45;;;;;;;14.97;58.20;96375.78;5136833;27;20035;-31
2022/04/08 08:36:19;;;;;;;6.75;3.10;;;;;;;14.96;56.57;96373.53;5136789;27;20023;-30
2022/04/08 08:38:44;;;;;;;6.07;2.00;;;;;;;15.23;55.09;96376.22;5136741;27;20019;-31
2022/04/08 08:41:10;;;;;;;7.10;2.58;;;;;;;15.31;54.17;96377.44;5136890;27;20031;-31
2022/04/08 08:43:36;;;;;;;8.70;2.67;;;;;;;15.33;54.52;96380.44;5136241;27;20532;-31
2022/04/08 08:46:06;;;;;;;7.20;2.25;;;;;;;15.31;54.40;96380.16;5136486;27;20027;-31
2022/04/08 08:48:34;;;;;;;7.60;2.08;;;;;;;15.30;54.36;96386.84;5136798;27;20475;-31
2022/04/08 08:51:05;;;;;;;7.43;2.50;;;;;;;15.35;54.05;96388.94;5136485;27;20527;-31
2022/04/08 08:53:32;;;;;;;7.63;2.40;;;;;;;15.30;54.35;96391.56;5136525;27;20496;-31
2022/04/08 08:55:57;;;;;;;6.05;2.10;;;;;;;15.14;55.61;96395.38;5136543;27;20099;-30
2022/04/08 08:58:23;;;;;;;4.63;1.65;;;;;;;15.22;54.78;96391.09;5136831;27;20483;-31
2022/04/08 09:00:49;;;;;;;8.63;2.25;;;;;;;15.06;55.64;96384.00;5136160;27;20023;-31
2022/04/08 09:03:14;;;;;;;6.90;2.20;;;;;;;15.12;55.79;96386.09;5136097;27;20047;-31
2022/04/08 09:05:45;;;;;;;7.60;2.20;;;;;;;15.19;55.65;96402.97;5136460;27;20057;-31
2022/04/08 09:08:33;;;;;;;8.93;2.17;;;;;;;14.98;57.13;96396.44;5136339;27;20031;-30
2022/04/08 09:10:59;;;;;;;8.80;2.47;;;;;;;15.01;57.29;96390.06;5136228;27;20527;-30
2022/04/08 09:13:24;;;;;;;6.47;2.10;;;;;;;15.01;57.28;96381.88;5136327;27;20098;-31
2022/04/08 09:15:57;;;;;;;14.00;2.85;;;;;;;15.08;58.01;96381.53;5135834;27;20019;-31
2022/04/08 09:18:23;;;;;;;10.23;2.53;;;;;;;15.13;57.43;96388.38;5135961;27;20521;-30
2022/04/08 09:20:50;;;;;;;10.77;2.60;;;;;;;15.06;57.66;96396.91;5135785;27;20028;-32
2022/04/08 09:23:19;;;;;;;7.82;2.72;;;;;;;15.02;57.95;96390.81;5136055;27;20102;-31
2022/04/08 09:25:50;;;;;;;13.70;3.38;;;;;;;15.04;58.62;96374.75;5136025;27;20035;-30
2022/04/08 09:28:18;;;;;;;13.00;3.15;;;;;;;15.20;57.99;96390.81;5136052;27;20031;-30
2022/04/08 09:31:02;;;;;;;8.43;2.75;;;;;;;15.28;57.16;96389.28;5117545;27;20027;-30
2022/04/08 09:33:28;;;;;;;10.43;3.80;;;;;;;15.12;58.08;96407.97;5135995;27;20027;-30
2022/04/08 09:35:55;;;;;;;6.95;2.40;;;;;;;15.33;57.32;96385.19;5135817;27;20049;-31
2022/04/08 09:38:22;;;;;;;12.73;2.72;;;;;;;15.28;57.32;96386.53;5132539;27;20098;-31
2022/04/08 09:40:48;;;;;;;10.68;2.78;;;;;;;15.08;58.24;96381.53;5113046;28;20096;-31
2022/04/08 09:43:16;;;;;;;9.05;3.00;;;;;;;15.19;58.13;96386.56;5114993;28;20422;-31
2022/04/08 09:45:41;;;;;;;8.27;2.45;;;;;;;15.19;58.67;96377.63;5114941;28;20135;-31
2022/04/08 09:48:08;;;;;;;9.85;2.78;;;;;;;15.27;58.40;96370.59;5114950;28;20117;-31
2022/04/08 09:50:36;;;;;;;10.32;2.90;;;;;;;15.25;58.81;96371.06;5114831;28;20020;-31
2022/04/08 09:53:05;;;;;;;10.40;3.03;;;;;;;15.15;59.35;96374.28;5114395;28;20016;-31
2022/04/08 09:55:31;;;;;;;9.27;3.20;;;;;;;15.04;59.72;96388.41;5114391;28;20056;-31
2022/04/08 09:57:59;;;;;;;16.35;4.50;;;;;;;15.09;59.89;96361.22;5114999;28;20099;-31
2022/04/08 10:00:27;;;;;;;19.73;5.82;;;;;;;15.20;59.63;96360.00;5114651;28;20031;-30
2022/04/08 10:02:58;;;;;;;18.75;6.95;;;;;;;15.14;59.98;96346.19;5114301;28;20067;-31
2022/04/08 10:05:24;;;;;;;23.08;7.97;;;;;;;15.18;59.68;96355.00;5114647;28;20019;-31
2022/04/08 10:07:53;;;;;;;19.77;7.25;;;;;;;15.25;59.46;96360.13;5114350;28;20516;-31
2022/04/08 10:10:48;;;;;;;24.20;8.85;;;;;;;15.00;60.51;96347.56;5114503;28;20421;-31
2022/04/08 10:13:26;;;;;;;25.80;8.30;;;;;;;15.04;60.14;96342.72;5114247;28;20023;-31
2022/04/08 10:16:01;;;;;;;23.05;7.05;;;;;;;15.02;60.35;96339.69;5114294;28;20459;-30
2022/04/08 10:18:34;;;;;;;20.17;7.43;;;;;;;15.14;60.68;96345.44;5114175;28;20019;-31
2022/04/08 10:21:00;;;;;;;16.58;5.95;;;;;;;15.22;60.48;96341.16;5114409;28;20361;-30
2022/04/08 10:23:35;;;;;;;16.48;6.28;;;;;;;15.15;60.49;96346.97;5114413;28;20022;-31
2022/04/08 10:26:02;;;;;;;19.00;6.03;;;;;;;15.19;60.57;96342.09;5114290;28;20022;-31
2022/04/08 10:28:37;;;;;;;18.33;5.72;;;;;;;15.10;60.30;96342.84;5113282;27;20031;-31
2022/04/08 10:31:18;;;;;;;14.15;5.47;;;;;;;15.21;60.65;96334.19;5132597;27;20020;-31
2022/04/08 10:33:57;;;;;;;18.15;6.20;;;;;;;15.33;59.57;96344.94;5114214;27;20023;-31
2022/04/08 10:36:33;;;;;;;19.80;4.97;;;;;;;15.26;60.25;96348.00;5132659;27;20031;-31
2022/04/08 10:39:12;;;;;;;14.43;4.78;;;;;;;15.23;60.50;96337.22;5132002;27;20031;-30
2022/04/08 10:41:58;;;;;;;13.90;4.60;;;;;;;15.22;60.58;96335.69;5132441;27;20023;-30
2022/04/08 10:44:33;;;;;;;16.35;4.90;;;;;;;15.23;60.48;96335.25;5132579;27;20512;-30
2022/04/08 10:47:01;;;;;;;17.33;4.00;;;;;;;15.16;61.29;96346.50;5132342;27;20080;-32
2022/04/08 10:49:27;;;;;;;13.80;4.72;;;;;;;15.23;60.85;96348.91;5132229;27;20023;-31
2022/04/08 10:51:53;;;;;;;14.70;4.25;;;;;;;15.22;60.57;96331.00;5132166;27;20384;-31
2022/04/08 10:54:20;;;;;;;15.07;3.85;;;;;;;15.24;60.58;96327.81;5132576;27;20031;-30
2022/04/08 10:56:57;;;;;;;10.38;3.65;;;;;;;15.21;61.29;96337.66;5132395;27;20033;-30
2022/04/08 10:59:27;;;;;;;12.75;3.30;;;;;;;15.32;61.14;96313.38;5132235;27;20027;-31
2022/04/08 11:01:58;;;;;;;12.35;3.63;;;;;;;15.28;61.21;96323.72;5132217;28;20027;-31
2022/04/08 11:04:27;;;;;;;14.20;3.45;;;;;;;15.40;60.76;96325.50;5130765;27;20051;-31
2022/04/08 11:06:53;;;;;;;9.60;3.22;;;;;;;15.31;60.31;96317.34;5135758;27;20443;-31
2022/04/08 11:09:19;;;;;;;14.32;3.33;;;;;;;15.30;60.51;96326.75;5136497;27;20119;-32
2022/04/08 11:11:49;;;;;;;13.75;3.65;;;;;;;15.32;61.00;96307.16;5136700;27;20029;-30
2022/04/08 11:14:14;;;;;;;12.13;4.28;;;;;;;15.53;60.17;96310.88;5117836;27;20391;-31
2022/04/08 11:16:41;;;;;;;11.32;4.30;;;;;;;15.38;60.11;96317.00;5136058;27;20019;-30
2022/04/08 11:19:08;;;;;;;14.82;3.20;;;;;;;15.33;60.68;96330.53;5135647;27;20513;-30
2022/04/08 11:21:38;;;;;;;12.52;3.88;;;;;;;15.30;60.96;96315.81;5136321;27;20027;-30
2022/04/08 11:24:05;;;;;;;8.07;2.80;;;;;;;15.24;60.98;96317.63;5136067;27;20035;-31
2022/04/08 11:26:41;;;;;;;7.28;2.50;;;;;;;15.30;61.74;96299.41;5135589;27;20023;-30
2022/04/08 11:29:19;;;;;;;13.02;3.70;;;;;;;15.59;60.63;96306.31;5136073;27;20023;-31
2022/04/08 11:31:46;;;;;;;12.13;3.10;;;;;;;15.56;60.79;96310.00;5136110;27;20100;-31